X  Lukk Metar værinformasjon om luftfart     ENZV Stavanger Airport, Sola
Temperatur
6°C Temperatur
3°C Duggpunkt
81% Luftfuktighet



Vind
7 M/S
16 MPT
26 KM/T
14 KNP



150°
SSØ
Nåværende forhold

Stort sett spredte skyer Stort sett spredte skyer
Trykk 1001.02 (hPa) - 29.56 (inHg)
Sikt 6 (mil) - 9.7 (km)
Flyplass
Flyplass-kode ENZV

Plassering: Stavanger Airport, Sola
Avstand: 15 (km)

Metar:
ENZV 211320Z 15014KT 9999 SCT008 BKN012 06/03 Q1001

Tid: 21-02-2024 13:20 CET